createdAt,value
2018-02-11T00:00:35.196Z,973.85
2018-02-11T00:01:35.122Z,973.84
2018-02-11T00:02:35.029Z,973.84
2018-02-11T00:03:34.951Z,973.80
2018-02-11T00:04:34.857Z,973.80
2018-02-11T00:05:34.782Z,973.79
2018-02-11T00:06:34.689Z,973.76
2018-02-11T00:07:34.615Z,973.75
2018-02-11T00:08:34.524Z,973.74
2018-02-11T00:09:34.443Z,973.71
2018-02-11T00:10:34.353Z,973.72
2018-02-11T00:11:34.276Z,973.70
2018-02-11T00:12:34.189Z,973.70
2018-02-11T00:13:34.110Z,973.65
2018-02-11T00:14:34.016Z,973.66
2018-02-11T00:15:33.941Z,973.66
2018-02-11T00:16:33.847Z,973.71
2018-02-11T00:17:33.782Z,973.68
2018-02-11T00:18:33.679Z,973.66
2018-02-11T00:19:33.603Z,973.68
2018-02-11T00:20:33.504Z,973.64
2018-02-11T00:21:33.432Z,973.68
2018-02-11T00:22:33.343Z,973.67
2018-02-11T00:23:33.263Z,973.65
2018-02-11T00:24:33.169Z,973.65
2018-02-11T00:25:33.100Z,973.65
2018-02-11T00:26:33.005Z,973.62
2018-02-11T00:27:32.934Z,973.63
2018-02-11T00:28:32.835Z,973.64
2018-02-11T00:29:32.759Z,973.61
2018-02-11T00:30:32.669Z,973.60
2018-02-11T00:31:32.589Z,973.57
2018-02-11T00:32:32.497Z,973.59
2018-02-11T00:33:32.420Z,973.58
2018-02-11T00:34:32.331Z,973.57
2018-02-11T00:35:32.253Z,973.54
2018-02-11T00:36:32.162Z,973.55
2018-02-11T00:37:32.084Z,973.55
2018-02-11T00:38:31.993Z,973.55
2018-02-11T00:39:31.920Z,973.52
2018-02-11T00:40:31.824Z,973.50
2018-02-11T00:41:31.745Z,973.56
2018-02-11T00:42:31.662Z,973.52
2018-02-11T00:43:31.583Z,973.55
2018-02-11T00:44:31.486Z,973.56
2018-02-11T00:45:31.411Z,973.58
2018-02-11T00:46:31.318Z,973.55
2018-02-11T00:47:31.241Z,973.57
2018-02-11T00:48:31.150Z,973.54
2018-02-11T00:49:31.083Z,973.54
2018-02-11T00:50:30.980Z,973.52
2018-02-11T00:51:30.905Z,973.54
2018-02-11T00:52:30.814Z,973.51
2018-02-11T00:53:30.736Z,973.54
2018-02-11T00:54:30.645Z,973.54
2018-02-11T00:55:30.568Z,973.56
2018-02-11T00:56:30.476Z,973.51
2018-02-11T00:57:30.407Z,973.50
2018-02-11T00:58:30.310Z,973.53
2018-02-11T00:59:30.239Z,973.47
2018-02-11T01:00:30.138Z,973.49
2018-02-11T01:01:30.065Z,973.48
2018-02-11T01:02:29.973Z,973.43
2018-02-11T01:03:29.895Z,973.45
2018-02-11T01:04:29.801Z,973.44
2018-02-11T01:05:29.727Z,973.44
2018-02-11T01:06:29.638Z,973.44
2018-02-11T01:07:29.564Z,973.42
2018-02-11T01:08:29.463Z,973.40
2018-02-11T01:09:29.393Z,973.41
2018-02-11T01:10:29.297Z,973.41
2018-02-11T01:11:29.221Z,973.34
2018-02-11T01:12:29.140Z,973.30
2018-02-11T01:13:29.055Z,973.32
2018-02-11T01:14:28.957Z,973.30
2018-02-11T01:15:28.888Z,973.30
2018-02-11T01:16:28.795Z,973.25
2018-02-11T01:17:28.723Z,973.28
2018-02-11T01:18:28.626Z,973.25
2018-02-11T01:19:28.546Z,973.22
2018-02-11T01:20:28.455Z,973.21
2018-02-11T01:21:28.376Z,973.19
2018-02-11T01:22:28.284Z,973.17
2018-02-11T01:23:28.216Z,973.09
2018-02-11T01:24:28.119Z,973.11
2018-02-11T01:25:28.042Z,973.07
2018-02-11T01:26:27.951Z,973.05
2018-02-11T01:27:27.876Z,973.05
2018-02-11T01:28:27.781Z,973.00
2018-02-11T01:29:27.705Z,972.96
2018-02-11T01:30:27.613Z,972.95
2018-02-11T01:31:27.538Z,972.94
2018-02-11T01:32:27.445Z,972.92
2018-02-11T01:33:27.369Z,972.92
2018-02-11T01:34:27.278Z,972.89
2018-02-11T01:35:27.204Z,972.86
2018-02-11T01:36:27.113Z,972.87
2018-02-11T01:37:27.034Z,972.85
2018-02-11T01:38:26.938Z,972.85
2018-02-11T01:39:26.865Z,972.77
2018-02-11T01:40:26.776Z,972.81
2018-02-11T01:41:26.696Z,972.75
2018-02-11T01:42:26.601Z,972.72
2018-02-11T01:43:26.527Z,972.74
2018-02-11T01:44:26.434Z,972.70
2018-02-11T01:45:26.360Z,972.70
2018-02-11T01:46:26.267Z,972.71
2018-02-11T01:47:26.196Z,972.67
2018-02-11T01:48:26.102Z,972.69
2018-02-11T01:49:26.023Z,972.68
2018-02-11T01:50:25.932Z,972.68
2018-02-11T01:51:25.853Z,972.64
2018-02-11T01:52:25.761Z,972.65
2018-02-11T01:53:25.687Z,972.63
2018-02-11T01:54:25.593Z,972.62
2018-02-11T01:55:25.521Z,972.61
2018-02-11T01:56:25.425Z,972.59
2018-02-11T01:57:25.349Z,972.61
2018-02-11T01:58:25.256Z,972.62
2018-02-11T01:59:25.182Z,972.63
2018-02-11T02:00:25.088Z,972.59
2018-02-11T02:01:25.014Z,972.57
2018-02-11T02:02:24.920Z,972.60
2018-02-11T02:03:24.846Z,972.61
2018-02-11T02:04:24.753Z,972.61
2018-02-11T02:05:24.675Z,972.59
2018-02-11T02:06:24.583Z,972.61
2018-02-11T02:07:24.510Z,972.59
2018-02-11T02:08:24.412Z,972.61
2018-02-11T02:09:24.337Z,972.61
2018-02-11T02:10:24.249Z,972.58
2018-02-11T02:11:24.169Z,972.54
2018-02-11T02:12:24.079Z,972.57
2018-02-11T02:13:24.002Z,972.55
2018-02-11T02:14:23.913Z,972.54
2018-02-11T02:15:23.834Z,972.50
2018-02-11T02:16:23.742Z,972.51
2018-02-11T02:17:23.664Z,972.48
2018-02-11T02:18:23.575Z,972.46
2018-02-11T02:19:23.497Z,972.47
2018-02-11T02:20:23.405Z,972.48
2018-02-11T02:21:23.332Z,972.38
2018-02-11T02:22:24.029Z,972.34
2018-02-11T02:23:23.161Z,972.35
2018-02-11T02:24:23.069Z,972.30
2018-02-11T02:25:22.993Z,972.32
2018-02-11T02:26:22.901Z,972.27
2018-02-11T02:27:22.824Z,972.25
2018-02-11T02:28:22.732Z,972.26
2018-02-11T02:29:22.658Z,972.21
2018-02-11T02:30:22.570Z,972.22
2018-02-11T02:31:22.489Z,972.18
2018-02-11T02:32:22.397Z,972.17
2018-02-11T02:33:22.370Z,972.14
2018-02-11T02:34:22.237Z,972.13
2018-02-11T02:35:22.156Z,972.10
2018-02-11T02:36:22.058Z,972.05
2018-02-11T02:37:21.986Z,972.01
2018-02-11T02:38:21.893Z,971.98
2018-02-11T02:39:21.818Z,972.02
2018-02-11T02:40:21.721Z,971.99
2018-02-11T02:41:21.642Z,971.95
2018-02-11T02:42:21.552Z,972.00
2018-02-11T02:43:21.479Z,971.94
2018-02-11T02:44:21.386Z,971.90
2018-02-11T02:45:21.309Z,971.94
2018-02-11T02:46:21.220Z,971.93
2018-02-11T02:47:21.141Z,971.89
2018-02-11T02:48:21.051Z,971.90
2018-02-11T02:49:20.975Z,971.91
2018-02-11T02:50:20.881Z,971.90
2018-02-11T02:51:20.814Z,971.93
2018-02-11T02:52:20.712Z,971.86
2018-02-11T02:53:20.638Z,971.88
2018-02-11T02:54:20.541Z,971.89
2018-02-11T02:55:20.465Z,971.85
2018-02-11T02:56:20.376Z,971.87
2018-02-11T02:57:20.304Z,971.81
2018-02-11T02:58:20.208Z,971.84
2018-02-11T02:59:20.135Z,971.79
2018-02-11T03:00:20.045Z,971.81
2018-02-11T03:01:19.964Z,971.76
2018-02-11T03:02:19.871Z,971.75
2018-02-11T03:03:19.794Z,971.78
2018-02-11T03:04:19.705Z,971.77
2018-02-11T03:05:19.627Z,971.77
2018-02-11T03:06:19.535Z,971.75
2018-02-11T03:07:19.461Z,971.75
2018-02-11T03:08:19.365Z,971.73
2018-02-11T03:09:19.287Z,971.70
2018-02-11T03:10:19.196Z,971.71
2018-02-11T03:11:19.121Z,971.69
2018-02-11T03:12:19.028Z,971.67
2018-02-11T03:13:18.951Z,971.64
2018-02-11T03:14:18.862Z,971.63
2018-02-11T03:15:18.805Z,971.62
2018-02-11T03:16:18.693Z,971.60
2018-02-11T03:17:18.619Z,971.54
2018-02-11T03:18:18.525Z,971.59
2018-02-11T03:19:18.446Z,971.54
2018-02-11T03:20:18.356Z,971.53
2018-02-11T03:21:18.282Z,971.56
2018-02-11T03:22:18.188Z,971.53
2018-02-11T03:23:18.112Z,971.52
2018-02-11T03:24:18.019Z,971.48
2018-02-11T03:25:17.943Z,971.52
2018-02-11T03:26:17.852Z,971.51
2018-02-11T03:27:17.778Z,971.52
2018-02-11T03:28:17.683Z,971.49
2018-02-11T03:29:17.606Z,971.49
2018-02-11T03:30:17.516Z,971.44
2018-02-11T03:31:17.436Z,971.44
2018-02-11T03:32:17.345Z,971.44
2018-02-11T03:33:17.269Z,971.49
2018-02-11T03:34:17.177Z,971.41
2018-02-11T03:35:17.102Z,971.43
2018-02-11T03:36:17.013Z,971.43
2018-02-11T03:37:16.932Z,971.39
2018-02-11T03:38:16.843Z,971.38
2018-02-11T03:39:16.766Z,971.33
2018-02-11T03:40:16.682Z,971.36
2018-02-11T03:41:16.596Z,971.38
2018-02-11T03:42:16.506Z,971.37
2018-02-11T03:43:16.427Z,971.40
2018-02-11T03:44:16.337Z,971.35
2018-02-11T03:45:16.258Z,971.32
2018-02-11T03:46:16.168Z,971.34
2018-02-11T03:47:16.095Z,971.36
2018-02-11T03:48:15.999Z,971.35
2018-02-11T03:49:15.926Z,971.32
2018-02-11T03:50:15.830Z,971.34
2018-02-11T03:51:15.757Z,971.36
2018-02-11T03:52:15.663Z,971.30
2018-02-11T03:53:15.588Z,971.32
2018-02-11T03:54:15.494Z,971.32
2018-02-11T03:55:16.423Z,971.33
2018-02-11T03:56:15.326Z,971.30
2018-02-11T03:57:15.249Z,971.27
2018-02-11T03:58:15.160Z,971.27
2018-02-11T03:59:15.081Z,971.25
2018-02-11T04:00:14.997Z,971.20
2018-02-11T04:01:14.913Z,971.20
2018-02-11T04:02:14.821Z,971.19
2018-02-11T04:03:14.803Z,971.17
2018-02-11T04:04:14.651Z,971.15
2018-02-11T04:05:14.576Z,971.14
2018-02-11T04:06:14.485Z,971.12
2018-02-11T04:07:14.408Z,971.13
2018-02-11T04:08:14.316Z,971.12
2018-02-11T04:09:14.240Z,971.08
2018-02-11T04:10:14.156Z,971.07
2018-02-11T04:11:14.072Z,971.05
2018-02-11T04:12:13.979Z,971.04
2018-02-11T04:13:13.904Z,971.01
2018-02-11T04:14:13.809Z,970.99
2018-02-11T04:15:13.743Z,970.96
2018-02-11T04:16:13.643Z,970.90
2018-02-11T04:17:13.567Z,970.90
2018-02-11T04:18:13.474Z,970.87
2018-02-11T04:19:13.399Z,970.87
2018-02-11T04:20:13.301Z,970.85
2018-02-11T04:21:13.231Z,970.84
2018-02-11T04:22:13.143Z,970.82
2018-02-11T04:23:13.060Z,970.85
2018-02-11T04:24:13.026Z,970.80
2018-02-11T04:25:12.891Z,970.80
2018-02-11T04:26:12.798Z,970.75
2018-02-11T04:27:12.728Z,970.77
2018-02-11T04:28:12.633Z,970.78
2018-02-11T04:29:12.559Z,970.78
2018-02-11T04:30:12.463Z,970.76
2018-02-11T04:31:12.494Z,970.73
2018-02-11T04:32:12.295Z,970.70
2018-02-11T04:33:12.231Z,970.72
2018-02-11T04:34:12.131Z,970.72
2018-02-11T04:35:12.051Z,970.71
2018-02-11T04:36:11.955Z,970.72
2018-02-11T04:37:11.916Z,970.71
2018-02-11T04:38:11.791Z,970.70
2018-02-11T04:39:11.724Z,970.69
2018-02-11T04:40:11.623Z,970.72
2018-02-11T04:41:11.635Z,970.73
2018-02-11T04:42:11.454Z,970.71
2018-02-11T04:43:11.444Z,970.69
2018-02-11T04:44:11.282Z,970.71
2018-02-11T04:45:11.248Z,970.64
2018-02-11T04:46:11.122Z,970.63
2018-02-11T04:47:11.043Z,970.60
2018-02-11T04:48:10.948Z,970.59
2018-02-11T04:49:10.971Z,970.56
2018-02-11T04:50:10.778Z,970.59
2018-02-11T04:51:10.780Z,970.57
2018-02-11T04:52:10.614Z,970.55
2018-02-11T04:53:10.588Z,970.49
2018-02-11T04:54:10.440Z,970.50
2018-02-11T04:55:10.395Z,970.49
2018-02-11T04:56:10.272Z,970.48
2018-02-11T04:57:10.308Z,970.43
2018-02-11T04:58:10.106Z,970.43
2018-02-11T04:59:10.032Z,970.42
2018-02-11T05:00:09.937Z,970.40
2018-02-11T05:01:09.855Z,970.38
2018-02-11T05:02:09.780Z,970.36
2018-02-11T05:03:09.689Z,970.33
2018-02-11T05:04:09.607Z,970.29
2018-02-11T05:05:09.517Z,970.34
2018-02-11T05:06:09.446Z,970.29
2018-02-11T05:07:09.349Z,970.28
2018-02-11T05:08:09.272Z,970.29
2018-02-11T05:09:09.220Z,970.22
2018-02-11T05:10:09.106Z,970.23
2018-02-11T05:11:09.013Z,970.22
2018-02-11T05:12:09.278Z,970.19
2018-02-11T05:13:08.844Z,970.25
2018-02-11T05:14:08.767Z,970.21
2018-02-11T05:15:08.678Z,970.26
2018-02-11T05:16:08.596Z,970.21
2018-02-11T05:17:08.506Z,970.23
2018-02-11T05:18:08.498Z,970.22
2018-02-11T05:19:08.338Z,970.21
2018-02-11T05:20:08.262Z,970.19
2018-02-11T05:21:08.170Z,970.19
2018-02-11T05:22:08.118Z,970.18
2018-02-11T05:23:08.003Z,970.17
2018-02-11T05:24:08.025Z,970.16
2018-02-11T05:25:07.834Z,970.17
2018-02-11T05:26:07.834Z,970.20
2018-02-11T05:27:07.664Z,970.17
2018-02-11T05:28:07.643Z,970.14
2018-02-11T05:29:07.493Z,970.12
2018-02-11T05:30:07.418Z,970.10
2018-02-11T05:31:07.327Z,970.07
2018-02-11T05:32:07.253Z,970.03
2018-02-11T05:33:07.159Z,970.02
2018-02-11T05:34:07.083Z,970.04
2018-02-11T05:35:06.990Z,970.01
2018-02-11T05:36:06.912Z,970.00
2018-02-11T05:37:06.821Z,969.98
2018-02-11T05:38:06.785Z,969.92
2018-02-11T05:39:06.657Z,969.94
2018-02-11T05:40:06.634Z,969.90
2018-02-11T05:41:06.484Z,969.90
2018-02-11T05:42:06.506Z,969.91
2018-02-11T05:43:06.319Z,969.89
2018-02-11T05:44:06.312Z,969.84
2018-02-11T05:45:06.148Z,969.86
2018-02-11T05:46:06.072Z,969.82
2018-02-11T05:47:05.984Z,969.80
2018-02-11T05:48:05.898Z,969.79
2018-02-11T05:49:05.806Z,969.76
2018-02-11T05:50:05.737Z,969.77
2018-02-11T05:51:05.641Z,969.75
2018-02-11T05:52:05.567Z,969.74
2018-02-11T05:53:05.474Z,969.70
2018-02-11T05:54:05.398Z,969.69
2018-02-11T05:55:05.303Z,969.66
2018-02-11T05:56:05.225Z,969.65
2018-02-11T05:57:05.134Z,969.59
2018-02-11T05:58:05.053Z,969.65
2018-02-11T05:59:04.967Z,969.65
2018-02-11T06:00:04.887Z,969.62
2018-02-11T06:01:04.798Z,969.63
2018-02-11T06:02:04.722Z,969.61
2018-02-11T06:03:04.628Z,969.60
2018-02-11T06:04:04.559Z,969.62
2018-02-11T06:05:04.463Z,969.56
2018-02-11T06:06:04.381Z,969.62
2018-02-11T06:07:04.301Z,969.60
2018-02-11T06:08:04.218Z,969.55
2018-02-11T06:09:04.121Z,969.55
2018-02-11T06:10:04.045Z,969.58
2018-02-11T06:11:03.954Z,969.56
2018-02-11T06:12:03.875Z,969.53
2018-02-11T06:13:03.784Z,969.57
2018-02-11T06:14:03.708Z,969.55
2018-02-11T06:15:03.613Z,969.55
2018-02-11T06:16:03.547Z,969.48
2018-02-11T06:17:03.445Z,969.50
2018-02-11T06:18:03.421Z,969.47
2018-02-11T06:19:03.278Z,969.49
2018-02-11T06:20:03.201Z,969.46
2018-02-11T06:21:03.110Z,969.49
2018-02-11T06:22:03.030Z,969.45
2018-02-11T06:23:02.948Z,969.46
2018-02-11T06:24:02.866Z,969.44
2018-02-11T06:25:02.770Z,969.46
2018-02-11T06:26:02.696Z,969.42
2018-02-11T06:27:02.602Z,969.44
2018-02-11T06:28:02.524Z,969.40
2018-02-11T06:29:02.432Z,969.38
2018-02-11T06:30:02.357Z,969.41
2018-02-11T06:31:02.263Z,969.40
2018-02-11T06:32:02.189Z,969.37
2018-02-11T06:33:02.096Z,969.32
2018-02-11T06:34:02.016Z,969.35
2018-02-11T06:35:01.925Z,969.29
2018-02-11T06:36:01.848Z,969.29
2018-02-11T06:37:01.756Z,969.16
2018-02-11T06:38:01.683Z,969.17
2018-02-11T06:39:01.589Z,969.19
2018-02-11T06:40:01.513Z,969.11
2018-02-11T06:41:01.419Z,969.07
2018-02-11T06:42:01.340Z,969.04
2018-02-11T06:43:01.248Z,969.05
2018-02-11T06:44:01.178Z,969.04
2018-02-11T06:45:01.081Z,969.03
2018-02-11T06:46:01.002Z,969.00
2018-02-11T06:47:00.912Z,968.99
2018-02-11T06:48:00.895Z,968.96
2018-02-11T06:49:00.744Z,968.97
2018-02-11T06:50:00.703Z,968.97
2018-02-11T06:51:00.576Z,968.99
2018-02-11T06:52:00.511Z,969.02
2018-02-11T06:53:00.406Z,969.03
2018-02-11T06:54:00.422Z,969.04
2018-02-11T06:55:00.238Z,969.04
2018-02-11T06:56:00.229Z,969.05
2018-02-11T06:57:00.068Z,969.08
2018-02-11T06:58:00.037Z,969.06
2018-02-11T06:58:59.901Z,969.03
2018-02-11T06:59:59.846Z,969.02
2018-02-11T07:00:59.737Z,969.01
2018-02-11T07:01:59.758Z,969.02
2018-02-11T07:02:59.561Z,968.98
2018-02-11T07:03:59.567Z,969.01
2018-02-11T07:04:59.392Z,968.98
2018-02-11T07:05:59.373Z,968.95
2018-02-11T07:06:59.223Z,968.93
2018-02-11T07:07:59.185Z,968.91
2018-02-11T07:08:59.054Z,968.86
2018-02-11T07:09:58.975Z,968.87
2018-02-11T07:10:58.887Z,968.89
2018-02-11T07:11:58.809Z,968.84
2018-02-11T07:12:58.716Z,968.84
2018-02-11T07:13:58.710Z,968.84
2018-02-11T07:14:58.551Z,968.79
2018-02-11T07:15:58.517Z,968.80
2018-02-11T07:16:58.378Z,968.77
2018-02-11T07:17:58.326Z,968.78
2018-02-11T07:18:58.210Z,968.73
2018-02-11T07:19:58.236Z,968.71
2018-02-11T07:20:58.042Z,968.68
2018-02-11T07:21:58.045Z,968.68
2018-02-11T07:22:57.873Z,968.66
2018-02-11T07:23:57.795Z,968.65
2018-02-11T07:24:57.703Z,968.64
2018-02-11T07:25:57.662Z,968.68
2018-02-11T07:26:57.535Z,968.66
2018-02-11T07:27:57.471Z,968.72
2018-02-11T07:28:57.368Z,968.71
2018-02-11T07:29:57.382Z,968.76
2018-02-11T07:30:57.200Z,968.74
2018-02-11T07:31:57.195Z,968.76
2018-02-11T07:32:57.030Z,968.78
2018-02-11T07:33:56.997Z,968.75
2018-02-11T07:34:56.860Z,968.74
2018-02-11T07:35:56.780Z,968.74
2018-02-11T07:36:56.690Z,968.74
2018-02-11T07:37:56.615Z,968.76
2018-02-11T07:38:56.522Z,968.71
2018-02-11T07:39:56.443Z,968.68
2018-02-11T07:40:56.354Z,968.63
2018-02-11T07:41:56.277Z,968.60
2018-02-11T07:42:56.186Z,968.61
2018-02-11T07:43:56.140Z,968.60
2018-02-11T07:44:56.020Z,968.59
2018-02-11T07:45:55.950Z,968.53
2018-02-11T07:46:55.849Z,968.53
2018-02-11T07:47:55.859Z,968.51
2018-02-11T07:48:55.680Z,968.48
2018-02-11T07:49:55.742Z,968.45
2018-02-11T07:50:55.510Z,968.40
2018-02-11T07:51:55.476Z,968.37
2018-02-11T07:52:55.343Z,968.34
2018-02-11T07:53:55.285Z,968.42
2018-02-11T07:54:55.177Z,968.39
2018-02-11T07:55:55.198Z,968.40
2018-02-11T07:56:55.009Z,968.39
2018-02-11T07:57:55.003Z,968.40
2018-02-11T07:58:54.839Z,968.45
2018-02-11T07:59:54.818Z,968.48
2018-02-11T08:00:54.670Z,968.46
2018-02-11T08:01:54.593Z,968.48
2018-02-11T08:02:54.501Z,968.48
2018-02-11T08:03:54.533Z,968.52
2018-02-11T08:04:54.333Z,968.52
2018-02-11T08:05:54.341Z,968.55
2018-02-11T08:06:54.165Z,968.47
2018-02-11T08:07:54.148Z,968.48
2018-02-11T08:08:53.996Z,968.45
2018-02-11T08:09:53.920Z,968.51
2018-02-11T08:10:53.829Z,968.43
2018-02-11T08:11:53.768Z,968.40
2018-02-11T08:12:53.671Z,968.50
2018-02-11T08:13:53.583Z,968.38
2018-02-11T08:14:53.493Z,968.47
2018-02-11T08:15:53.433Z,968.45
2018-02-11T08:16:53.328Z,968.43
2018-02-11T08:17:53.294Z,968.45
2018-02-11T08:18:53.156Z,968.48
2018-02-11T08:19:53.074Z,968.46
2018-02-11T08:20:52.984Z,968.46
2018-02-11T08:21:52.913Z,968.45
2018-02-11T08:22:52.819Z,968.43
2018-02-11T08:23:52.742Z,968.40
2018-02-11T08:24:52.650Z,968.40
2018-02-11T08:25:52.574Z,968.38
2018-02-11T08:26:52.482Z,968.40
2018-02-11T08:27:52.436Z,968.36
2018-02-11T08:28:52.312Z,968.35
2018-02-11T08:29:52.241Z,968.37
2018-02-11T08:30:52.147Z,968.35
2018-02-11T08:31:52.071Z,968.27
2018-02-11T08:32:51.976Z,968.30
2018-02-11T08:33:51.963Z,968.28
2018-02-11T08:34:51.810Z,968.24
2018-02-11T08:35:51.772Z,968.21
2018-02-11T08:36:51.641Z,968.20
2018-02-11T08:37:51.562Z,968.20
2018-02-11T08:38:51.473Z,968.16
2018-02-11T08:39:51.531Z,968.21
2018-02-11T08:40:51.451Z,968.21
2018-02-11T08:41:51.322Z,968.21
2018-02-11T08:42:51.259Z,968.18
2018-02-11T08:43:51.050Z,968.22
2018-02-11T08:44:51.069Z,968.24
2018-02-11T08:45:50.884Z,968.21
2018-02-11T08:46:50.882Z,968.18
2018-02-11T08:47:50.718Z,968.20
2018-02-11T08:48:50.684Z,968.19
2018-02-11T08:49:50.548Z,968.15
2018-02-11T08:50:50.597Z,968.16
2018-02-11T08:51:50.379Z,968.10
2018-02-11T08:52:50.406Z,968.11
2018-02-11T08:53:50.213Z,968.15
2018-02-11T08:54:50.214Z,968.16
2018-02-11T08:55:50.044Z,968.18
2018-02-11T08:56:50.130Z,968.11
2018-02-11T08:57:49.878Z,968.16
2018-02-11T08:58:49.830Z,968.18
2018-02-11T08:59:49.709Z,968.19
2018-02-11T09:00:49.743Z,968.11
2018-02-11T09:01:49.543Z,968.16
2018-02-11T09:02:49.556Z,968.14
2018-02-11T09:03:49.370Z,968.08
2018-02-11T09:04:49.462Z,968.08
2018-02-11T09:05:49.206Z,968.05
2018-02-11T09:06:49.275Z,968.05
2018-02-11T09:07:49.033Z,968.01
2018-02-11T09:08:49.084Z,967.97
2018-02-11T09:09:48.868Z,967.98
2018-02-11T09:10:48.890Z,967.94
2018-02-11T09:11:48.698Z,967.94
2018-02-11T09:12:48.727Z,967.93
2018-02-11T09:13:48.535Z,967.91
2018-02-11T09:14:48.611Z,967.91
2018-02-11T09:15:48.363Z,967.87
2018-02-11T09:16:48.422Z,967.81
2018-02-11T09:17:48.195Z,967.78
2018-02-11T09:18:48.230Z,967.80
2018-02-11T09:19:48.025Z,967.75
2018-02-11T09:20:48.040Z,967.75
2018-02-11T09:21:47.860Z,967.73
2018-02-11T09:22:47.950Z,967.77
2018-02-11T09:23:47.699Z,967.74
2018-02-11T09:24:47.679Z,967.74
2018-02-11T09:25:47.528Z,967.71
2018-02-11T09:26:47.568Z,967.70
2018-02-11T09:27:47.355Z,967.68
2018-02-11T09:28:47.377Z,967.68
2018-02-11T09:29:47.190Z,967.65
2018-02-11T09:30:47.187Z,967.69
2018-02-11T09:31:47.018Z,967.66
2018-02-11T09:32:47.098Z,967.66
2018-02-11T09:33:46.850Z,967.62
2018-02-11T09:34:46.910Z,967.63
2018-02-11T09:35:46.681Z,967.63
2018-02-11T09:36:46.714Z,967.59
2018-02-11T09:37:46.514Z,967.57
2018-02-11T09:38:46.523Z,967.55
2018-02-11T09:39:46.345Z,967.47
2018-02-11T09:40:46.434Z,967.51
2018-02-11T09:41:46.179Z,967.50
2018-02-11T09:42:46.244Z,967.51
2018-02-11T09:43:46.010Z,967.48
2018-02-11T09:44:46.054Z,967.50
2018-02-11T09:45:45.844Z,967.42
2018-02-11T09:46:45.861Z,967.48
2018-02-11T09:47:45.675Z,967.53
2018-02-11T09:48:45.776Z,967.52
2018-02-11T09:49:45.508Z,967.54
2018-02-11T09:50:45.504Z,967.57
2018-02-11T09:51:45.340Z,967.58
2018-02-11T09:52:45.393Z,967.63
2018-02-11T09:53:45.174Z,967.63
2018-02-11T09:54:45.202Z,967.57
2018-02-11T09:55:45.004Z,967.54
2018-02-11T09:56:45.113Z,967.53
2018-02-11T09:57:44.843Z,967.55
2018-02-11T09:58:44.921Z,967.52
2018-02-11T09:59:44.668Z,967.45
2018-02-11T10:00:44.630Z,967.40
2018-02-11T10:01:44.498Z,967.43
2018-02-11T10:02:44.535Z,967.39
2018-02-11T10:03:44.337Z,967.41
2018-02-11T10:04:44.372Z,967.39
2018-02-11T10:05:44.164Z,967.39
2018-02-11T10:06:44.260Z,967.41
2018-02-11T10:07:43.998Z,967.39
2018-02-11T10:08:44.071Z,967.35
2018-02-11T10:09:43.828Z,967.34
2018-02-11T10:10:43.775Z,967.33
2018-02-11T10:11:43.665Z,967.34
2018-02-11T10:12:43.687Z,967.33
2018-02-11T10:13:43.494Z,967.34
2018-02-11T10:14:43.599Z,967.35
2018-02-11T10:15:43.326Z,967.39
2018-02-11T10:16:43.407Z,967.30
2018-02-11T10:17:43.158Z,967.31
2018-02-11T10:18:43.114Z,967.24
2018-02-11T10:19:42.991Z,967.32
2018-02-11T10:20:43.025Z,967.35
2018-02-11T10:21:42.824Z,967.35
2018-02-11T10:22:42.937Z,967.24
2018-02-11T10:23:42.656Z,967.25
2018-02-11T10:24:42.658Z,967.18
2018-02-11T10:25:42.495Z,967.14
2018-02-11T10:26:42.554Z,967.16
2018-02-11T10:27:42.321Z,967.12
2018-02-11T10:28:42.260Z,967.10
2018-02-11T10:29:42.153Z,967.11
2018-02-11T10:30:42.276Z,967.03
2018-02-11T10:31:41.990Z,967.03
2018-02-11T10:32:42.083Z,966.98
2018-02-11T10:33:41.816Z,967.07
2018-02-11T10:34:41.794Z,967.02
2018-02-11T10:35:41.651Z,967.13
2018-02-11T10:36:41.601Z,967.03
2018-02-11T10:37:41.480Z,966.99
2018-02-11T10:38:41.512Z,967.03
2018-02-11T10:39:41.313Z,967.01
2018-02-11T10:40:41.321Z,966.91
2018-02-11T10:41:41.147Z,966.96
2018-02-11T10:42:41.231Z,966.97
2018-02-11T10:43:40.979Z,966.92
2018-02-11T10:44:41.044Z,966.95
2018-02-11T10:45:40.810Z,966.93
2018-02-11T10:46:40.852Z,966.90
2018-02-11T10:47:40.640Z,966.92
2018-02-11T10:48:40.659Z,966.86
2018-02-11T10:49:40.474Z,966.84
2018-02-11T10:50:40.470Z,966.83
2018-02-11T10:51:40.312Z,966.82
2018-02-11T10:52:40.382Z,966.79
2018-02-11T10:53:40.142Z,966.79
2018-02-11T10:54:40.088Z,966.79
2018-02-11T10:55:39.969Z,966.77
2018-02-11T10:56:40.101Z,966.78
2018-02-11T10:57:39.805Z,966.79
2018-02-11T10:58:39.912Z,966.78
2018-02-11T10:59:39.636Z,966.79
2018-02-11T11:00:40.739Z,966.72
2018-02-11T11:01:39.472Z,966.67
2018-02-11T11:02:39.525Z,966.71
2018-02-11T11:03:39.298Z,966.66
2018-02-11T11:04:39.438Z,966.69
2018-02-11T11:05:39.134Z,966.66
2018-02-11T11:06:39.247Z,966.55
2018-02-11T11:07:38.966Z,966.56
2018-02-11T11:08:39.053Z,966.60
2018-02-11T11:09:38.796Z,966.56
2018-02-11T11:10:38.872Z,966.59
2018-02-11T11:11:38.629Z,966.56
2018-02-11T11:12:38.674Z,966.55
2018-02-11T11:13:38.464Z,966.55
2018-02-11T11:14:38.585Z,966.53
2018-02-11T11:15:38.296Z,966.52
2018-02-11T11:16:38.402Z,966.53
2018-02-11T11:17:38.126Z,966.56
2018-02-11T11:18:38.200Z,966.50
2018-02-11T11:19:37.958Z,966.54
2018-02-11T11:20:38.021Z,966.50
2018-02-11T11:21:37.791Z,966.49
2018-02-11T11:22:37.923Z,966.52
2018-02-11T11:23:37.624Z,966.45
2018-02-11T11:24:37.733Z,966.47
2018-02-11T11:25:37.452Z,966.44
2018-02-11T11:26:37.540Z,966.40
2018-02-11T11:27:37.287Z,966.42
2018-02-11T11:28:37.344Z,966.36
2018-02-11T11:29:37.126Z,966.39
2018-02-11T11:30:37.259Z,966.43
2018-02-11T11:31:36.950Z,966.38
2018-02-11T11:32:37.069Z,966.35
2018-02-11T11:33:36.788Z,966.35
2018-02-11T11:34:36.773Z,966.35
2018-02-11T11:35:36.615Z,966.35
2018-02-11T11:36:36.586Z,966.30
2018-02-11T11:37:36.447Z,966.33
2018-02-11T11:38:36.393Z,966.30
2018-02-11T11:39:36.278Z,966.30
2018-02-11T11:40:36.295Z,966.27
2018-02-11T11:41:36.114Z,966.25
2018-02-11T11:42:36.117Z,966.31
2018-02-11T11:43:35.948Z,966.26
2018-02-11T11:44:35.922Z,966.27
2018-02-11T11:45:35.778Z,966.26
2018-02-11T11:46:35.735Z,966.24
2018-02-11T11:47:35.607Z,966.21
2018-02-11T11:48:35.643Z,966.21
2018-02-11T11:49:35.442Z,966.23
2018-02-11T11:50:35.451Z,966.18
2018-02-11T11:51:35.273Z,966.23
2018-02-11T11:52:35.260Z,966.25
2018-02-11T11:53:35.112Z,966.21
2018-02-11T11:54:35.071Z,966.20
2018-02-11T11:55:34.940Z,966.23
2018-02-11T11:56:34.981Z,966.24
2018-02-11T11:57:34.783Z,966.19
2018-02-11T11:58:34.791Z,966.20
2018-02-11T11:59:34.620Z,966.14
2018-02-11T12:00:34.600Z,966.16
2018-02-11T12:01:34.446Z,966.13
2018-02-11T12:02:34.435Z,966.14
2018-02-11T12:03:34.271Z,966.14
2018-02-11T12:04:34.301Z,966.14
2018-02-11T12:05:34.106Z,966.10
2018-02-11T12:06:34.127Z,966.09
2018-02-11T12:07:33.935Z,966.13
2018-02-11T12:08:33.936Z,966.13
2018-02-11T12:09:33.774Z,966.09
2018-02-11T12:10:33.747Z,966.08
2018-02-11T12:11:33.601Z,966.07
2018-02-11T12:12:33.660Z,966.03
2018-02-11T12:13:33.435Z,966.04
2018-02-11T12:14:33.468Z,966.01
2018-02-11T12:15:33.267Z,965.99
2018-02-11T12:16:33.277Z,966.03
2018-02-11T12:17:33.100Z,965.99
2018-02-11T12:18:33.085Z,965.97
2018-02-11T12:19:32.932Z,966.00
2018-02-11T12:20:32.897Z,965.98
2018-02-11T12:21:32.771Z,965.98
2018-02-11T12:22:32.778Z,965.96
2018-02-11T12:23:32.597Z,965.96
2018-02-11T12:24:32.612Z,965.95
2018-02-11T12:25:32.436Z,965.90
2018-02-11T12:26:32.399Z,965.88
2018-02-11T12:27:32.263Z,965.86